createdAt,value
2024-05-09T00:02:06.889Z,101594.59000000001
2024-05-09T00:07:07.008Z,101597.14
2024-05-09T00:12:07.071Z,101599.27
2024-05-09T00:17:06.968Z,101601.47
2024-05-09T00:22:07.057Z,101600.36
2024-05-09T00:27:08.345Z,101598.03
2024-05-09T00:32:07.095Z,101604.75
2024-05-09T00:37:06.834Z,101602.91
2024-05-09T00:42:07.010Z,101599.23999999999
2024-05-09T00:47:07.939Z,101600.78
2024-05-09T00:52:08.488Z,101608.14
2024-05-09T00:57:06.995Z,101599.67
2024-05-09T01:02:08.502Z,101602.25
2024-05-09T01:07:07.255Z,101604.31999999999
2024-05-09T01:12:07.071Z,101606.58
2024-05-09T01:17:06.961Z,101605.47
2024-05-09T01:22:07.042Z,101603.05
2024-05-09T01:27:06.832Z,101608.42
2024-05-09T01:32:06.933Z,101614.73999999999
2024-05-09T01:37:06.757Z,101626.17
2024-05-09T01:42:07.102Z,101627.29000000001
2024-05-09T01:47:07.053Z,101636.58
2024-05-09T01:52:06.829Z,101628.77
2024-05-09T01:57:07.135Z,101625.75
2024-05-09T02:02:06.931Z,101620.98
2024-05-09T02:07:06.935Z,101625.48000000001
2024-05-09T02:12:07.014Z,101621.63
2024-05-09T02:17:06.910Z,101623.27
2024-05-09T02:22:06.845Z,101627.91
2024-05-09T02:27:07.374Z,101627.04
2024-05-09T02:32:07.019Z,101625.53
2024-05-09T02:37:06.755Z,101619.92
2024-05-09T02:42:06.888Z,101621.42
2024-05-09T02:47:06.959Z,101621.73
2024-05-09T02:52:06.775Z,101627.95
2024-05-09T02:57:07.058Z,101624.23999999999
2024-05-09T03:02:06.823Z,101623.75
2024-05-09T03:07:06.879Z,101627.06
2024-05-09T03:12:08.364Z,101629.37
2024-05-09T03:17:06.814Z,101628.14
2024-05-09T03:22:06.765Z,101628.91
2024-05-09T03:27:07.063Z,101628.78
2024-05-09T03:32:06.700Z,101631.67
2024-05-09T03:37:07.221Z,101629.31999999999
2024-05-09T03:42:07.007Z,101632.51000000001
2024-05-09T03:47:07.016Z,101634.91
2024-05-09T03:52:06.699Z,101634.3
2024-05-09T03:57:06.810Z,101637.41
2024-05-09T04:02:06.754Z,101632.09000000001
2024-05-09T04:07:06.793Z,101635.19
2024-05-09T04:12:07.110Z,101634.77
2024-05-09T04:17:06.727Z,101637.01999999999
2024-05-09T04:22:07.062Z,101636.14
2024-05-09T04:27:07.193Z,101640.91
2024-05-09T04:32:07.120Z,101639.4
2024-05-09T04:37:06.840Z,101641.72
2024-05-09T04:42:06.801Z,101638.7
2024-05-09T04:47:06.816Z,101640.75
2024-05-09T04:52:06.846Z,101641.66
2024-05-09T04:57:07.034Z,101637.45
2024-05-09T05:02:06.709Z,101624.69
2024-05-09T05:07:06.731Z,101631.12999999999
2024-05-09T05:17:06.742Z,101639.92
2024-05-09T05:22:06.628Z,101634.78
2024-05-09T05:27:06.958Z,101637.41
2024-05-09T05:32:07.702Z,101642.14
2024-05-09T05:37:07.218Z,101637.15
2024-05-09T05:42:06.708Z,101638.53
2024-05-09T05:47:07.862Z,101633.75
2024-05-09T05:52:06.581Z,101636.78
2024-05-09T05:57:07.116Z,101632.48
2024-05-09T06:02:08.502Z,101636.28
2024-05-09T06:07:06.685Z,101635.35
2024-05-09T06:12:06.955Z,101622.19
2024-05-09T06:17:06.595Z,101615.34
2024-05-09T06:22:08.495Z,101622.34999999999
2024-05-09T06:27:07.845Z,101615.99
2024-05-09T06:32:06.954Z,101613.98000000001
2024-05-09T06:37:06.588Z,101611.35
2024-05-09T06:42:06.759Z,101614.06
2024-05-09T06:47:06.628Z,101608.12
2024-05-09T06:52:08.148Z,101602.44
2024-05-09T06:57:06.649Z,101602.79000000001
2024-05-09T07:02:06.723Z,101602.85
2024-05-09T07:07:08.177Z,101600.76000000001
2024-05-09T07:12:06.943Z,101590.56
2024-05-09T07:17:06.716Z,101598.36
2024-05-09T07:22:06.749Z,101599.23999999999
2024-05-09T07:27:07.148Z,101592.74
2024-05-09T07:32:07.935Z,101578.99
2024-05-09T07:37:11.523Z,101574.36
2024-05-09T07:42:07.024Z,101568.19
2024-05-09T07:48:14.507Z,101577.28
2024-05-09T07:57:06.596Z,101580.6
2024-05-09T08:02:06.850Z,101566.87
2024-05-09T08:07:06.582Z,101562.48000000001
2024-05-09T08:12:08.190Z,101565.36
2024-05-09T08:17:06.516Z,101561.92
2024-05-09T08:22:06.859Z,101558.31
2024-05-09T08:27:06.944Z,101559.04000000001
2024-05-09T08:32:11.273Z,101550.2
2024-05-09T08:37:13.087Z,101548.13
2024-05-09T08:42:07.017Z,101555.7
2024-05-09T08:47:08.838Z,101555.42
2024-05-09T08:52:07.046Z,101545.04
2024-05-09T08:57:07.494Z,101547.55
2024-05-09T09:02:10.885Z,101532.15
2024-05-09T09:07:06.524Z,101534.99
2024-05-09T09:12:08.570Z,101527.66
2024-05-09T09:17:12.262Z,101525.98000000001
2024-05-09T09:22:17.097Z,101521.59
2024-05-09T09:27:06.711Z,101524.03
2024-05-09T09:32:07.545Z,101525.42
2024-05-09T09:37:08.982Z,101523.63
2024-05-09T09:42:06.762Z,101528.45
2024-05-09T09:47:07.522Z,101522.19
2024-05-09T09:52:08.463Z,101521.81
2024-05-09T09:57:07.453Z,101513.9
2024-05-09T10:02:06.692Z,101507.65
2024-05-09T10:07:09.195Z,101508.2
2024-05-09T10:12:09.597Z,101505.76999999999
2024-05-09T10:17:06.468Z,101516.6
2024-05-09T10:22:07.722Z,101515.91
2024-05-09T10:27:06.491Z,101513.87
2024-05-09T10:32:07.515Z,101504.16
2024-05-09T10:37:06.689Z,101493.14
2024-05-09T10:42:08.940Z,101492.46
2024-05-09T10:47:06.569Z,101495.54000000001
2024-05-09T10:52:07.309Z,101497.96
2024-05-09T10:57:06.428Z,101496.12
2024-05-09T11:02:06.723Z,101487.34
2024-05-09T11:07:09.380Z,101481.61
2024-05-09T11:12:07.444Z,101470.87
2024-05-09T11:17:07.099Z,101467.7
2024-05-09T11:22:06.982Z,101459.92
2024-05-09T11:27:06.417Z,101453.64
2024-05-09T11:32:07.772Z,101448.72
2024-05-09T11:37:06.669Z,101447.94
2024-05-09T11:42:06.872Z,101443.86
2024-05-09T11:47:06.477Z,101440.83
2024-05-09T11:52:06.640Z,101429.39
2024-05-09T11:57:06.419Z,101426.76
2024-05-09T12:02:06.822Z,101422.0
2024-05-09T12:07:08.422Z,101416.2
2024-05-09T12:12:06.682Z,101414.23999999999
2024-05-09T12:17:06.428Z,101417.33
2024-05-09T12:22:06.698Z,101408.18000000001
2024-05-09T12:27:06.375Z,101402.58
2024-05-09T12:32:06.846Z,101399.2
2024-05-09T12:37:06.628Z,101398.51999999999
2024-05-09T12:42:06.510Z,101391.18999999999
2024-05-09T12:47:06.377Z,101391.57
2024-05-09T12:52:06.547Z,101381.06
2024-05-09T12:57:06.543Z,101372.03
2024-05-09T13:02:06.563Z,101374.53
2024-05-09T13:07:08.039Z,101370.11
2024-05-09T13:12:06.649Z,101361.42
2024-05-09T13:17:06.664Z,101360.11
2024-05-09T13:22:06.550Z,101361.06
2024-05-09T13:32:07.150Z,101349.78
2024-05-09T13:37:06.650Z,101352.56000000001
2024-05-09T13:42:06.371Z,101341.23
2024-05-09T13:47:06.582Z,101337.62000000001
2024-05-09T13:52:06.446Z,101331.19
2024-05-09T13:57:06.527Z,101320.75
2024-05-09T14:02:06.663Z,101317.19
2024-05-09T14:07:08.910Z,101311.97
2024-05-09T14:12:08.621Z,101304.0
2024-05-09T14:17:06.964Z,101303.89
2024-05-09T14:22:06.566Z,101300.19
2024-05-09T14:27:06.708Z,101299.71
2024-05-09T14:32:06.436Z,101289.20000000001
2024-05-09T14:37:07.048Z,101279.66
2024-05-09T14:42:06.351Z,101284.33
2024-05-09T14:47:06.687Z,101276.05
2024-05-09T14:52:06.914Z,101273.68000000001
2024-05-09T14:57:06.387Z,101270.54000000001
2024-05-09T15:02:06.624Z,101267.46
2024-05-09T15:07:08.139Z,101261.22
2024-05-09T15:12:08.312Z,101256.52
2024-05-09T15:17:06.735Z,101246.72
2024-05-09T15:22:06.393Z,101248.83
2024-05-09T15:27:06.341Z,101246.97
2024-05-09T15:32:06.498Z,101242.13
2024-05-09T15:37:07.440Z,101240.8
2024-05-09T15:42:06.308Z,101232.61
2024-05-09T15:47:07.114Z,101226.37
2024-05-09T15:52:06.552Z,101223.1
2024-05-09T15:57:07.446Z,101216.64
2024-05-09T16:02:07.666Z,101214.18
2024-05-09T16:07:06.663Z,101205.05
2024-05-09T16:12:06.945Z,101209.56
2024-05-09T16:17:06.571Z,101199.05
2024-05-09T16:22:06.668Z,101195.78
2024-05-09T16:27:06.279Z,101194.95
2024-05-09T16:32:06.542Z,101190.85
2024-05-09T16:37:09.806Z,101198.1
2024-05-09T16:42:06.318Z,101196.51
2024-05-09T16:47:06.927Z,101193.34
2024-05-09T16:52:06.576Z,101196.09
2024-05-09T16:57:06.357Z,101195.04
2024-05-09T17:02:08.329Z,101197.34999999999
2024-05-09T17:07:06.346Z,101199.14
2024-05-09T17:12:06.575Z,101200.7
2024-05-09T17:17:07.884Z,101202.81
2024-05-09T17:22:06.323Z,101205.38
2024-05-09T17:27:07.123Z,101198.1
2024-05-09T17:32:06.616Z,101201.88
2024-05-09T17:37:06.300Z,101203.31
2024-05-09T17:42:06.261Z,101196.61
2024-05-09T17:47:13.453Z,101200.47
2024-05-09T17:52:06.343Z,101202.61
2024-05-09T17:57:07.263Z,101205.05
2024-05-09T18:02:06.320Z,101201.51
2024-05-09T18:07:06.381Z,101204.08
2024-05-09T18:12:09.340Z,101208.67
2024-05-09T18:17:06.381Z,101209.36
2024-05-09T18:22:06.314Z,101216.75
2024-05-09T18:27:06.434Z,101225.71
2024-05-09T18:32:06.567Z,101228.91
2024-05-09T18:37:08.188Z,101236.63
2024-05-09T18:42:06.581Z,101232.47
2024-05-09T18:47:06.338Z,101239.39
2024-05-09T18:52:06.211Z,101242.6
2024-05-09T18:57:07.004Z,101245.14
2024-05-09T19:02:08.979Z,101236.11
2024-05-09T19:07:06.326Z,101242.6
2024-05-09T19:12:06.617Z,101247.88
2024-05-09T19:17:06.217Z,101242.76999999999
2024-05-09T19:22:06.323Z,101241.5
2024-05-09T19:27:06.482Z,101243.62
2024-05-09T19:32:06.229Z,101244.9
2024-05-09T19:37:06.402Z,101246.81
2024-05-09T19:42:06.588Z,101245.81
2024-05-09T19:47:06.200Z,101245.37
2024-05-09T19:52:06.379Z,101238.14
2024-05-09T19:57:06.505Z,101238.9
2024-05-09T20:02:06.209Z,101240.04
2024-05-09T20:07:06.122Z,101250.58
2024-05-09T20:12:06.493Z,101257.15
2024-05-09T20:17:06.415Z,101259.07999999999
2024-05-09T20:22:06.554Z,101259.39
2024-05-09T20:27:06.325Z,101260.42
2024-05-09T20:32:06.715Z,101258.39
2024-05-09T20:37:06.214Z,101264.12
2024-05-09T20:42:06.728Z,101258.5
2024-05-09T20:47:06.304Z,101254.94
2024-05-09T20:52:06.281Z,101251.45
2024-05-09T20:57:06.832Z,101250.05
2024-05-09T21:02:06.313Z,101249.84
2024-05-09T21:07:06.227Z,101258.73
2024-05-09T21:12:06.561Z,101253.36
2024-05-09T21:17:06.157Z,101248.44
2024-05-09T21:22:06.276Z,101252.0
2024-05-09T21:27:06.231Z,101248.49
2024-05-09T21:32:06.695Z,101249.03
2024-05-09T21:37:06.220Z,101247.83
2024-05-09T21:42:06.124Z,101249.05
2024-05-09T21:47:06.566Z,101250.15
2024-05-09T21:52:06.088Z,101243.52
2024-05-09T21:57:08.017Z,101248.65999999999
2024-05-09T22:02:06.839Z,101249.44
2024-05-09T22:07:08.087Z,101247.79
2024-05-09T22:12:06.174Z,101249.47
2024-05-09T22:17:06.126Z,101239.59
2024-05-09T22:22:06.203Z,101244.42
2024-05-09T22:27:07.902Z,101243.34
2024-05-09T22:32:06.392Z,101237.01999999999
2024-05-09T22:37:06.134Z,101239.53
2024-05-09T22:42:06.132Z,101237.47
2024-05-09T22:47:06.488Z,101238.01
2024-05-09T22:52:06.430Z,101238.59
2024-05-09T22:57:06.028Z,101240.08
2024-05-09T23:02:06.482Z,101237.78
2024-05-09T23:07:06.220Z,101242.79000000001
2024-05-09T23:12:06.428Z,101233.78
2024-05-09T23:17:06.393Z,101228.19
2024-05-09T23:22:06.173Z,101227.8
2024-05-09T23:27:06.120Z,101221.75
2024-05-09T23:32:08.339Z,101217.81999999999
2024-05-09T23:37:06.080Z,101217.95
2024-05-09T23:42:06.279Z,101216.39
2024-05-09T23:47:07.376Z,101213.12000000001
2024-05-09T23:52:06.413Z,101211.06
2024-05-09T23:57:06.216Z,101203.78
